Maldives Meteorological Service

SYNOP

Station Code SYNOP
43555
AAXX 24064 43555 12462 40906 10315 20253 30122 40124 60001 83201 333 58001 83818=
43533
AAXX 24064 43533 12460 11404 10312 20247 30124 40126 60001 81200 333 59005 81818=
43577
AAXX 24064 43577 12462 20505 10309 20242 30120 40122 60001 82201 333 59001 82818=
43588
AAXX 24064 43588 12462 21103 10310 20254 30117 40118 60001 81201 333 59001 81819=
43599
AAXX 24064 43599 12462 20504 10314 20238 30118 40120 60001 81101 333 59003 81819=
Last Updated : 2017-03-24 11:00:16